createdAt,value
2023-12-17T00:00:09.883Z,6.18
2023-12-17T00:02:37.217Z,6.18
2023-12-17T00:05:05.058Z,6.18
2023-12-17T00:07:32.305Z,6.20
2023-12-17T00:09:59.725Z,6.20
2023-12-17T00:12:27.045Z,6.21
2023-12-17T00:14:54.599Z,6.18
2023-12-17T00:17:22.686Z,6.25
2023-12-17T00:19:50.112Z,6.22
2023-12-17T00:22:17.571Z,6.25
2023-12-17T00:24:44.931Z,6.14
2023-12-17T00:27:16.266Z,6.20
2023-12-17T00:29:43.588Z,6.31
2023-12-17T00:32:10.845Z,6.29
2023-12-17T00:34:38.313Z,6.32
2023-12-17T00:37:06.086Z,6.32
2023-12-17T00:39:33.467Z,6.33
2023-12-17T00:42:00.793Z,6.35
2023-12-17T00:44:28.048Z,6.37
2023-12-17T00:46:55.366Z,6.38
2023-12-17T00:49:22.651Z,6.36
2023-12-17T00:51:49.846Z,6.29
2023-12-17T00:54:17.148Z,6.42
2023-12-17T00:56:44.502Z,6.44
2023-12-17T00:59:11.838Z,6.44
2023-12-17T01:01:39.941Z,6.48
2023-12-17T01:04:07.283Z,6.49
2023-12-17T01:06:34.522Z,6.50
2023-12-17T01:09:01.861Z,6.53
2023-12-17T01:11:29.124Z,6.53
2023-12-17T01:13:56.429Z,6.52
2023-12-17T01:16:23.588Z,6.49
2023-12-17T01:18:51.004Z,6.56
2023-12-17T01:21:18.424Z,6.43
2023-12-17T01:23:45.772Z,6.58
2023-12-17T01:26:24.410Z,6.61
2023-12-17T01:28:51.735Z,6.63
2023-12-17T01:31:19.190Z,6.64
2023-12-17T01:33:46.655Z,6.61
2023-12-17T01:36:14.097Z,6.65
2023-12-17T01:38:41.488Z,6.66
2023-12-17T01:41:08.838Z,6.69
2023-12-17T01:43:36.369Z,6.65
2023-12-17T01:46:04.204Z,6.69
2023-12-17T01:48:32.131Z,6.68
2023-12-17T01:50:59.869Z,6.69
2023-12-17T01:53:27.144Z,6.71
2023-12-17T01:55:54.807Z,6.71
2023-12-17T01:58:23.148Z,6.68
2023-12-17T02:00:50.693Z,6.73
2023-12-17T02:03:18.348Z,6.73
2023-12-17T02:05:47.541Z,6.70
2023-12-17T02:08:15.173Z,6.77
2023-12-17T02:10:42.413Z,6.72
2023-12-17T02:13:11.756Z,6.79
2023-12-17T02:15:39.343Z,6.74
2023-12-17T02:18:07.084Z,6.80
2023-12-17T02:20:36.083Z,6.73
2023-12-17T02:23:06.621Z,6.81
2023-12-17T02:25:34.263Z,6.80
2023-12-17T02:28:01.677Z,6.81
2023-12-17T02:30:29.235Z,6.77
2023-12-17T02:32:57.202Z,6.79
2023-12-17T02:35:24.871Z,6.85
2023-12-17T02:37:52.142Z,6.86
2023-12-17T02:40:19.467Z,6.88
2023-12-17T02:42:46.968Z,6.89
2023-12-17T02:45:14.774Z,6.91
2023-12-17T02:47:42.644Z,6.92
2023-12-17T02:50:11.419Z,6.93
2023-12-17T02:52:38.690Z,6.95
2023-12-17T02:55:06.559Z,6.95
2023-12-17T02:57:34.107Z,6.96
2023-12-17T03:00:01.295Z,6.95
2023-12-17T03:02:29.408Z,6.99
2023-12-17T03:04:56.719Z,6.98
2023-12-17T03:07:23.973Z,7.00
2023-12-17T03:09:51.413Z,7.00
2023-12-17T03:12:18.662Z,6.98
2023-12-17T03:14:46.387Z,7.03
2023-12-17T03:17:14.033Z,6.99
2023-12-17T03:19:41.842Z,6.97
2023-12-17T03:22:09.170Z,7.03
2023-12-17T03:24:36.455Z,7.01
2023-12-17T03:27:03.934Z,7.02
2023-12-17T03:29:31.124Z,7.02
2023-12-17T03:31:59.499Z,7.04
2023-12-17T03:34:28.115Z,7.06
2023-12-17T03:36:55.402Z,7.04
2023-12-17T03:39:22.685Z,7.05
2023-12-17T03:41:49.992Z,7.00
2023-12-17T03:44:17.295Z,7.05
2023-12-17T03:46:44.511Z,7.04
2023-12-17T03:49:11.912Z,7.06
2023-12-17T03:51:39.377Z,7.09
2023-12-17T03:54:06.714Z,7.08
2023-12-17T03:56:33.974Z,7.08
2023-12-17T03:59:01.138Z,7.08
2023-12-17T04:01:28.419Z,7.09
2023-12-17T04:03:55.778Z,7.12
2023-12-17T04:06:23.164Z,7.02
2023-12-17T04:08:55.707Z,7.08
2023-12-17T04:11:23.443Z,7.10
2023-12-17T04:13:50.575Z,7.12
2023-12-17T04:16:17.774Z,7.09
2023-12-17T04:18:45.113Z,7.12
2023-12-17T04:21:12.479Z,7.14
2023-12-17T04:23:39.759Z,7.13
2023-12-17T04:26:07.409Z,7.11
2023-12-17T04:28:34.734Z,7.12
2023-12-17T04:31:01.999Z,7.13
2023-12-17T04:33:29.383Z,7.14
2023-12-17T04:35:56.672Z,7.13
2023-12-17T04:38:25.102Z,7.04
2023-12-17T04:40:52.764Z,7.06
2023-12-17T04:43:20.018Z,6.91
2023-12-17T04:45:47.248Z,7.17
2023-12-17T04:48:14.693Z,7.16
2023-12-17T04:50:42.059Z,7.13
2023-12-17T04:53:09.443Z,7.18
2023-12-17T04:55:36.916Z,7.17
2023-12-17T04:58:04.160Z,7.18
2023-12-17T05:00:31.544Z,7.19
2023-12-17T05:02:58.932Z,7.22
2023-12-17T05:05:27.614Z,7.17
2023-12-17T05:07:54.776Z,7.21
2023-12-17T05:10:22.087Z,7.22
2023-12-17T05:12:49.298Z,7.25
2023-12-17T05:15:16.654Z,7.23
2023-12-17T05:17:44.419Z,7.24
2023-12-17T05:20:12.144Z,7.16
2023-12-17T05:22:39.503Z,7.24
2023-12-17T05:25:08.530Z,7.26
2023-12-17T05:27:38.009Z,7.25
2023-12-17T05:30:05.982Z,7.26
2023-12-17T05:32:34.211Z,7.27
2023-12-17T05:35:01.913Z,7.27
2023-12-17T05:37:29.362Z,7.25
2023-12-17T05:39:56.571Z,7.27
2023-12-17T05:42:23.998Z,7.28
2023-12-17T05:44:51.708Z,7.24
2023-12-17T05:47:19.962Z,7.31
2023-12-17T05:49:47.428Z,7.31
2023-12-17T05:52:14.852Z,7.29
2023-12-17T05:54:44.429Z,7.24
2023-12-17T05:57:11.699Z,7.25
2023-12-17T05:59:38.973Z,7.26
2023-12-17T06:02:06.734Z,7.24
2023-12-17T06:04:34.505Z,7.24
2023-12-17T06:07:01.825Z,7.28
2023-12-17T06:09:29.219Z,7.21
2023-12-17T06:11:59.120Z,7.24
2023-12-17T06:14:26.703Z,7.24
2023-12-17T06:16:53.985Z,7.23
2023-12-17T06:19:21.330Z,7.27
2023-12-17T06:21:48.807Z,7.24
2023-12-17T06:24:16.209Z,7.28
2023-12-17T06:26:43.651Z,7.28
2023-12-17T06:29:15.044Z,7.23
2023-12-17T06:31:42.619Z,7.30
2023-12-17T06:34:10.332Z,7.28
2023-12-17T06:36:37.941Z,7.29
2023-12-17T06:39:10.167Z,7.31
2023-12-17T06:41:44.230Z,7.31
2023-12-17T06:44:11.489Z,7.33
2023-12-17T06:46:38.935Z,7.33
2023-12-17T06:49:06.248Z,7.35
2023-12-17T06:51:33.598Z,7.36
2023-12-17T06:54:01.066Z,7.34
2023-12-17T06:56:28.886Z,7.38
2023-12-17T06:58:56.216Z,7.38
2023-12-17T07:01:23.584Z,7.37
2023-12-17T07:03:51.571Z,7.32
2023-12-17T07:06:18.890Z,7.42
2023-12-17T07:08:46.231Z,7.45
2023-12-17T07:11:13.646Z,7.44
2023-12-17T07:13:40.946Z,7.46
2023-12-17T07:16:08.569Z,7.47
2023-12-17T07:18:35.931Z,7.46
2023-12-17T07:21:03.377Z,7.47
2023-12-17T07:23:30.629Z,7.44
2023-12-17T07:25:57.767Z,7.45
2023-12-17T07:28:25.060Z,7.48
2023-12-17T07:30:52.353Z,7.49
2023-12-17T07:33:19.692Z,7.47
2023-12-17T07:35:47.211Z,7.51
2023-12-17T07:38:14.655Z,7.50
2023-12-17T07:40:42.042Z,7.52
2023-12-17T07:43:09.329Z,7.47
2023-12-17T07:45:38.136Z,7.53
2023-12-17T07:48:06.062Z,7.54
2023-12-17T07:50:34.451Z,7.51
2023-12-17T07:53:01.777Z,7.54
2023-12-17T07:55:29.067Z,7.53
2023-12-17T07:57:56.288Z,7.57
2023-12-17T08:00:23.617Z,7.54
2023-12-17T08:02:51.018Z,7.58
2023-12-17T08:05:19.065Z,7.58
2023-12-17T08:07:46.320Z,7.60
2023-12-17T08:10:13.741Z,7.62
2023-12-17T08:12:41.117Z,7.55
2023-12-17T08:15:08.892Z,7.61
2023-12-17T08:17:36.199Z,7.66
2023-12-17T08:20:04.241Z,7.70
2023-12-17T08:22:31.468Z,7.69
2023-12-17T08:24:58.778Z,7.66
2023-12-17T08:27:26.044Z,7.67
2023-12-17T08:29:53.362Z,7.77
2023-12-17T08:32:21.689Z,7.76
2023-12-17T08:34:49.101Z,7.76
2023-12-17T08:37:16.445Z,7.77
2023-12-17T08:39:44.532Z,7.79
2023-12-17T08:42:11.864Z,7.79
2023-12-17T08:44:39.192Z,7.73
2023-12-17T08:47:06.527Z,7.82
2023-12-17T08:49:33.835Z,7.82
2023-12-17T08:52:01.129Z,7.80
2023-12-17T08:54:28.570Z,7.77
2023-12-17T08:56:55.911Z,7.81
2023-12-17T08:59:23.274Z,7.85
2023-12-17T09:01:51.315Z,7.89
2023-12-17T09:04:18.981Z,7.85
2023-12-17T09:06:47.496Z,7.89
2023-12-17T09:09:16.325Z,7.91
2023-12-17T09:11:44.445Z,7.89
2023-12-17T09:14:11.733Z,7.88
2023-12-17T09:16:39.687Z,7.93
2023-12-17T09:19:07.272Z,7.90
2023-12-17T09:21:35.181Z,7.94
2023-12-17T09:24:02.491Z,7.93
2023-12-17T09:26:29.773Z,7.90
2023-12-17T09:28:57.036Z,7.96
2023-12-17T09:31:24.601Z,7.96
2023-12-17T09:33:52.085Z,7.95
2023-12-17T09:36:19.552Z,7.97
2023-12-17T09:38:46.939Z,7.97
2023-12-17T09:41:14.428Z,7.97
2023-12-17T09:43:41.852Z,7.99
2023-12-17T09:46:10.451Z,7.99
2023-12-17T09:48:39.068Z,7.98
2023-12-17T09:51:07.283Z,7.98
2023-12-17T09:53:36.033Z,8.02
2023-12-17T09:56:03.293Z,8.03
2023-12-17T09:58:30.591Z,8.04
2023-12-17T10:00:58.158Z,8.03
2023-12-17T10:03:26.160Z,8.05
2023-12-17T10:05:55.476Z,8.07
2023-12-17T10:08:24.106Z,8.05
2023-12-17T10:10:51.957Z,8.07
2023-12-17T10:13:21.202Z,8.11
2023-12-17T10:15:50.362Z,8.12
2023-12-17T10:18:18.806Z,8.12
2023-12-17T10:20:47.157Z,8.12
2023-12-17T10:23:15.135Z,8.12
2023-12-17T10:25:43.546Z,8.14
2023-12-17T10:28:14.892Z,8.13
2023-12-17T10:30:43.647Z,8.13
2023-12-17T10:33:19.214Z,8.12
2023-12-17T10:35:47.264Z,8.11
2023-12-17T10:38:17.409Z,8.16
2023-12-17T10:40:45.236Z,8.15
2023-12-17T10:43:14.242Z,8.12
2023-12-17T10:45:44.848Z,8.14
2023-12-17T10:48:15.082Z,8.15
2023-12-17T10:50:43.835Z,8.15
2023-12-17T10:53:11.096Z,8.15
2023-12-17T10:55:38.428Z,8.16
2023-12-17T10:58:11.056Z,8.07
2023-12-17T11:00:41.024Z,8.17
2023-12-17T11:03:11.184Z,8.13
2023-12-17T11:05:54.136Z,8.18
2023-12-17T11:08:25.036Z,8.19
2023-12-17T11:10:52.788Z,8.19
2023-12-17T11:13:26.454Z,8.20
2023-12-17T11:15:54.649Z,8.20
2023-12-17T11:18:24.853Z,8.19
2023-12-17T11:20:54.747Z,8.22
2023-12-17T11:23:22.545Z,8.23
2023-12-17T11:25:50.108Z,8.24
2023-12-17T11:28:27.440Z,8.25
2023-12-17T11:30:56.143Z,8.24
2023-12-17T11:33:23.726Z,8.25
2023-12-17T11:35:51.773Z,8.26
2023-12-17T11:38:19.268Z,8.25
2023-12-17T11:40:46.918Z,8.26
2023-12-17T11:43:14.141Z,8.26
2023-12-17T11:45:47.166Z,8.26
2023-12-17T11:48:19.718Z,8.26
2023-12-17T11:50:53.062Z,8.26
2023-12-17T11:53:22.118Z,8.28
2023-12-17T11:55:50.940Z,8.24
2023-12-17T11:58:23.230Z,8.29
2023-12-17T12:01:04.218Z,8.27
2023-12-17T12:03:32.157Z,8.28
2023-12-17T12:06:07.502Z,8.29
2023-12-17T12:09:04.033Z,8.28
2023-12-17T12:11:35.306Z,8.29
2023-12-17T12:14:02.929Z,8.28
2023-12-17T12:16:40.816Z,8.31
2023-12-17T12:19:10.567Z,8.33
2023-12-17T12:21:41.702Z,8.35
2023-12-17T12:24:12.529Z,8.34
2023-12-17T12:26:39.888Z,8.31
2023-12-17T12:29:10.617Z,8.34
2023-12-17T12:31:38.217Z,8.34
2023-12-17T12:34:07.102Z,8.34
2023-12-17T12:36:48.519Z,8.32
2023-12-17T12:39:19.919Z,8.32
2023-12-17T12:41:48.370Z,8.34
2023-12-17T12:44:17.180Z,8.31
2023-12-17T12:46:48.965Z,8.34
2023-12-17T12:49:19.510Z,8.34
2023-12-17T12:51:48.836Z,8.33
2023-12-17T12:56:43.615Z,8.35
2023-12-17T12:59:22.501Z,8.35
2023-12-17T13:01:53.774Z,8.31
2023-12-17T13:04:22.398Z,8.35
2023-12-17T13:06:49.745Z,8.34
2023-12-17T13:09:19.213Z,8.35
2023-12-17T13:11:50.366Z,8.33
2023-12-17T13:14:18.642Z,8.31
2023-12-17T13:16:46.036Z,8.33
2023-12-17T13:19:15.470Z,8.33
2023-12-17T13:21:43.639Z,8.33
2023-12-17T13:24:11.127Z,8.33
2023-12-17T13:26:39.780Z,8.34
2023-12-17T13:29:07.238Z,8.35
2023-12-17T13:31:36.861Z,8.35
2023-12-17T13:34:04.619Z,8.35
2023-12-17T13:36:33.249Z,8.36
2023-12-17T13:39:00.982Z,8.35
2023-12-17T13:41:28.487Z,8.32
2023-12-17T13:43:55.743Z,8.35
2023-12-17T13:46:22.979Z,8.35
2023-12-17T13:48:50.590Z,8.35
2023-12-17T13:51:19.547Z,8.35
2023-12-17T13:53:49.789Z,8.35
2023-12-17T13:56:17.323Z,8.32
2023-12-17T13:58:44.781Z,8.34
2023-12-17T14:01:12.569Z,8.26
2023-12-17T14:03:40.123Z,8.32
2023-12-17T14:06:10.142Z,8.34
2023-12-17T14:08:37.552Z,8.30
2023-12-17T14:11:04.861Z,8.31
2023-12-17T14:13:32.159Z,8.30
2023-12-17T14:15:59.758Z,8.27
2023-12-17T14:18:27.189Z,8.30
2023-12-17T14:20:54.514Z,8.31
2023-12-17T14:23:22.870Z,8.31
2023-12-17T14:25:51.767Z,8.30
2023-12-17T14:28:19.770Z,8.24
2023-12-17T14:30:48.962Z,8.30
2023-12-17T14:33:17.648Z,8.31
2023-12-17T14:35:45.346Z,8.30
2023-12-17T14:38:12.991Z,8.21
2023-12-17T14:40:40.437Z,8.30
2023-12-17T14:43:07.808Z,8.30
2023-12-17T14:45:35.303Z,8.30
2023-12-17T14:48:02.756Z,8.28
2023-12-17T14:50:33.146Z,8.30
2023-12-17T14:53:00.743Z,8.26
2023-12-17T14:55:27.938Z,8.29
2023-12-17T14:57:55.169Z,8.28
2023-12-17T15:00:23.437Z,8.24
2023-12-17T15:02:52.246Z,8.25
2023-12-17T15:05:19.898Z,8.23
2023-12-17T15:07:47.181Z,8.20
2023-12-17T15:10:14.424Z,8.23
2023-12-17T15:12:41.792Z,8.22
2023-12-17T15:15:09.717Z,8.22
2023-12-17T15:17:37.186Z,8.21
2023-12-17T15:20:06.216Z,8.21
2023-12-17T15:22:34.076Z,8.21
2023-12-17T15:25:01.364Z,8.16
2023-12-17T15:27:29.133Z,8.18
2023-12-17T15:29:56.425Z,8.20
2023-12-17T15:32:24.286Z,8.19
2023-12-17T15:34:51.678Z,8.18
2023-12-17T15:37:19.099Z,8.14
2023-12-17T15:39:46.387Z,8.15
2023-12-17T15:42:13.774Z,8.13
2023-12-17T15:44:41.175Z,8.15
2023-12-17T15:47:08.358Z,8.07
2023-12-17T15:49:37.601Z,8.14
2023-12-17T15:52:05.459Z,8.14
2023-12-17T15:54:32.871Z,8.14
2023-12-17T15:57:00.459Z,8.13
2023-12-17T15:59:27.749Z,8.10
2023-12-17T16:01:55.423Z,8.08
2023-12-17T16:04:22.673Z,7.89
2023-12-17T16:06:49.994Z,8.09
2023-12-17T16:09:19.958Z,8.09
2023-12-17T16:11:48.274Z,8.08
2023-12-17T16:14:15.505Z,8.08
2023-12-17T16:16:42.857Z,8.05
2023-12-17T16:19:11.309Z,8.05
2023-12-17T16:21:39.109Z,8.03
2023-12-17T16:24:06.442Z,8.04
2023-12-17T16:26:33.820Z,8.05
2023-12-17T16:29:00.918Z,8.05
2023-12-17T16:31:28.265Z,8.04
2023-12-17T16:33:56.257Z,8.01
2023-12-17T16:36:23.748Z,8.00
2023-12-17T16:38:53.859Z,7.94
2023-12-17T16:41:21.278Z,7.94
2023-12-17T16:43:49.699Z,7.93
2023-12-17T16:46:18.090Z,7.96
2023-12-17T16:48:58.016Z,7.95
2023-12-17T16:51:27.619Z,7.94
2023-12-17T16:53:55.080Z,7.94
2023-12-17T16:56:24.191Z,7.93
2023-12-17T16:58:53.633Z,7.92
2023-12-17T17:01:21.413Z,7.89
2023-12-17T17:03:49.038Z,7.89
2023-12-17T17:06:16.441Z,7.88
2023-12-17T17:08:43.735Z,7.86
2023-12-17T17:11:13.563Z,7.80
2023-12-17T17:13:41.585Z,7.83
2023-12-17T17:16:08.872Z,7.82
2023-12-17T17:18:36.359Z,7.76
2023-12-17T17:21:03.981Z,7.74
2023-12-17T17:23:31.466Z,7.72
2023-12-17T17:25:59.002Z,7.71
2023-12-17T17:28:27.628Z,7.64
2023-12-17T17:30:54.976Z,7.63
2023-12-17T17:33:23.417Z,7.57
2023-12-17T17:35:51.036Z,7.57
2023-12-17T17:38:18.437Z,7.54
2023-12-17T17:40:45.795Z,7.51
2023-12-17T17:43:13.306Z,7.46
2023-12-17T17:45:40.638Z,7.41
2023-12-17T17:48:08.141Z,7.40
2023-12-17T17:50:35.665Z,7.37
2023-12-17T17:53:03.734Z,7.31
2023-12-17T17:55:33.809Z,7.29
2023-12-17T17:58:01.268Z,7.27
2023-12-17T18:00:29.002Z,7.23
2023-12-17T18:02:56.442Z,7.02
2023-12-17T18:05:23.828Z,7.16
2023-12-17T18:07:51.437Z,7.14
2023-12-17T18:10:19.419Z,7.13
2023-12-17T18:12:47.832Z,7.12
2023-12-17T18:15:15.271Z,7.09
2023-12-17T18:17:42.548Z,7.07
2023-12-17T18:20:10.267Z,7.03
2023-12-17T18:22:37.613Z,7.02
2023-12-17T18:25:05.651Z,6.94
2023-12-17T18:27:33.071Z,6.95
2023-12-17T18:30:00.464Z,6.94
2023-12-17T18:32:27.999Z,6.87
2023-12-17T18:34:55.549Z,6.91
2023-12-17T18:37:23.465Z,6.91
2023-12-17T18:39:55.757Z,6.86
2023-12-17T18:42:24.459Z,6.86
2023-12-17T18:44:55.431Z,6.83
2023-12-17T18:47:22.901Z,6.82
2023-12-17T18:49:50.601Z,6.75
2023-12-17T18:52:18.707Z,6.77
2023-12-17T18:55:02.428Z,6.77
2023-12-17T18:57:32.077Z,6.77
2023-12-17T18:59:59.869Z,6.73
2023-12-17T19:02:31.524Z,6.71
2023-12-17T19:04:58.882Z,6.67
2023-12-17T19:07:26.075Z,6.65
2023-12-17T19:09:53.404Z,6.60
2023-12-17T19:12:21.286Z,6.62
2023-12-17T19:14:49.252Z,6.58
2023-12-17T19:17:17.724Z,6.57
2023-12-17T19:19:45.364Z,6.53
2023-12-17T19:22:14.105Z,6.53
2023-12-17T19:24:41.770Z,6.52
2023-12-17T19:27:09.348Z,6.46
2023-12-17T19:29:38.898Z,6.42
2023-12-17T19:32:06.629Z,6.39
2023-12-17T19:34:40.524Z,6.41
2023-12-17T19:37:08.567Z,6.38
2023-12-17T19:39:39.019Z,6.37
2023-12-17T19:42:08.417Z,6.38
2023-12-17T19:44:36.135Z,6.39
2023-12-17T19:47:03.582Z,6.35
2023-12-17T19:49:31.152Z,6.39
2023-12-17T19:51:58.508Z,6.37
2023-12-17T19:54:25.984Z,6.36
2023-12-17T19:56:53.320Z,6.36
2023-12-17T19:59:20.706Z,6.34
2023-12-17T20:01:49.037Z,6.33
2023-12-17T20:04:16.382Z,6.29
2023-12-17T20:06:49.138Z,6.30
2023-12-17T20:09:17.324Z,6.30
2023-12-17T20:11:44.861Z,6.33
2023-12-17T20:14:12.144Z,6.31
2023-12-17T20:16:39.464Z,6.30
2023-12-17T20:19:07.999Z,6.28
2023-12-17T20:21:35.525Z,6.27
2023-12-17T20:24:02.874Z,6.27
2023-12-17T20:26:30.133Z,6.22
2023-12-17T20:28:57.311Z,6.18
2023-12-17T20:31:24.649Z,6.21
2023-12-17T20:33:52.381Z,6.21
2023-12-17T20:36:19.761Z,6.20
2023-12-17T20:38:47.027Z,6.18
2023-12-17T20:41:21.374Z,6.14
2023-12-17T20:43:48.766Z,6.14
2023-12-17T20:46:16.441Z,6.11
2023-12-17T20:48:43.733Z,6.05
2023-12-17T20:51:11.188Z,6.04
2023-12-17T20:53:39.090Z,6.00
2023-12-17T20:56:06.453Z,6.00
2023-12-17T20:58:33.767Z,5.96
2023-12-17T21:01:01.014Z,5.95
2023-12-17T21:03:28.453Z,5.92
2023-12-17T21:05:55.788Z,5.93
2023-12-17T21:08:24.997Z,5.88
2023-12-17T21:10:52.304Z,5.91
2023-12-17T21:13:19.504Z,5.90
2023-12-17T21:15:46.854Z,5.89
2023-12-17T21:18:14.282Z,5.86
2023-12-17T21:20:41.759Z,5.81
2023-12-17T21:23:09.062Z,5.85
2023-12-17T21:25:36.320Z,5.86
2023-12-17T21:28:03.667Z,5.83
2023-12-17T21:30:31.025Z,5.83
2023-12-17T21:32:58.551Z,5.83
2023-12-17T21:35:26.070Z,5.81
2023-12-17T21:37:53.247Z,5.81
2023-12-17T21:40:20.542Z,5.82
2023-12-17T21:42:47.830Z,5.77
2023-12-17T21:45:15.204Z,5.74
2023-12-17T21:47:43.018Z,5.77
2023-12-17T21:50:10.648Z,5.73
2023-12-17T21:53:44.162Z,5.71
2023-12-17T21:56:11.348Z,5.70
2023-12-17T21:58:38.658Z,5.67
2023-12-17T22:01:06.065Z,5.57
2023-12-17T22:03:33.492Z,5.64
2023-12-17T22:06:00.831Z,5.66
2023-12-17T22:08:28.233Z,5.63
2023-12-17T22:10:55.454Z,5.66
2023-12-17T22:13:22.801Z,5.64
2023-12-17T22:15:50.313Z,5.63
2023-12-17T22:18:18.108Z,5.66
2023-12-17T22:20:45.523Z,5.64
2023-12-17T22:23:13.339Z,5.67
2023-12-17T22:25:40.704Z,5.69
2023-12-17T22:28:08.970Z,5.68
2023-12-17T22:30:36.507Z,5.72
2023-12-17T22:33:04.351Z,5.72
2023-12-17T22:35:31.775Z,5.76
2023-12-17T22:37:58.940Z,5.76
2023-12-17T22:40:26.235Z,5.81
2023-12-17T22:42:53.500Z,5.82
2023-12-17T22:45:21.468Z,5.83
2023-12-17T22:47:48.906Z,5.85
2023-12-17T22:50:16.218Z,5.87
2023-12-17T22:52:43.766Z,5.86
2023-12-17T22:55:11.349Z,5.76
2023-12-17T22:57:38.770Z,5.92
2023-12-17T23:00:09.617Z,5.91
2023-12-17T23:02:36.989Z,5.96
2023-12-17T23:05:04.283Z,5.97
2023-12-17T23:07:31.547Z,5.94
2023-12-17T23:09:58.879Z,5.97
2023-12-17T23:12:26.216Z,5.97
2023-12-17T23:14:53.495Z,5.96
2023-12-17T23:17:20.882Z,5.94
2023-12-17T23:19:48.233Z,5.94
2023-12-17T23:22:15.636Z,5.97
2023-12-17T23:24:42.913Z,5.96
2023-12-17T23:27:10.359Z,5.97
2023-12-17T23:29:37.757Z,5.97
2023-12-17T23:32:05.346Z,5.97
2023-12-17T23:34:32.723Z,6.00
2023-12-17T23:37:00.073Z,5.99
2023-12-17T23:39:27.464Z,5.95
2023-12-17T23:41:54.813Z,6.02
2023-12-17T23:44:22.128Z,6.04
2023-12-17T23:46:49.578Z,6.01
2023-12-17T23:49:17.031Z,6.04
2023-12-17T23:51:44.304Z,6.05
2023-12-17T23:54:11.713Z,6.05
2023-12-17T23:56:44.133Z,6.03
2023-12-17T23:59:11.899Z,6.03
